Terminal Aerodrome Forecast
Issued by NWS Duluth, MN

Home | Current Version | Previous Version | Text Only | Print | Product List | Glossary On
Versions: 1 2 3 4 5 6 7 8 9 10 11 12 13 14 15 16 17
000
FTUS43 KDLH 241141
TAFDLH
TAF
KDLH 241141Z 2412/2512 34005KT P6SM SKC
     FM241700 13006KT P6SM SCT200
     FM250000 10010KT P6SM OVC030
     FM250200 08011KT 1SM -SN OVC020
     FM250400 08010KT 1/2SM SN OVC004
     FM251100 25015KT P6SM -SHSN OVC020=

USA.gov is the U.S. government's official web portal to all federal, state and local government web resources and services.